This is the latest recevied weather packets stored in our database for station/object KI4BIY. If no packets are shown the sender has not sent any weather packets the latest 1 day(s).
| Time | Temp. | Humidity | Pressure | Rain* | Wind** | Luminosity | Snow |
|---|---|---|---|---|---|---|---|
| 1778008935 | 17.22° C | 99% | 1007.7 hPa | 0 mm | 0.89 m/s, 211° | 42 W/m² | - |
| 1778008634 | 17.22° C | 99% | 1007.7 hPa | 0 mm | 0.89 m/s, 179° | 49 W/m² | - |
| 1778008332 | 17.22° C | 99% | 1007.7 hPa | 0 mm | 0.45 m/s, 239° | 76 W/m² | - |
| 1778008028 | 16.67° C | 99% | 1007.7 hPa | 0 mm | 1.34 m/s, 199° | 68 W/m² | - |
| 1778007727 | 16.67° C | 99% | 1008 hPa | 0 mm | 1.34 m/s, 197° | 75 W/m² | - |
| 1778007424 | 16.67° C | 99% | 1007.8 hPa | 0 mm | 0 m/s | 62 W/m² | - |
| 1778007121 | 16.67° C | 99% | 1008 hPa | 0 mm | 1.34 m/s, 216° | 61 W/m² | - |
| 1778006817 | 16.67° C | 99% | 1008.1 hPa | 0 mm | 0.45 m/s, 196° | 56 W/m² | - |
| 1778006514 | 16.67° C | 99% | 1007.8 hPa | 0 mm | 0.45 m/s, 230° | 57 W/m² | - |
| 1778006211 | 16.67° C | 99% | 1008 hPa | 0 mm | 1.34 m/s, 198° | 75 W/m² | - |
| 1778005909 | 16.67° C | 99% | 1008.1 hPa | 0 mm | 0.45 m/s, 271° | 69 W/m² | - |
| 1778005604 | 16.67° C | 99% | 1008 hPa | 0 mm | 0 m/s | 67 W/m² | - |
| 1778005302 | 16.11° C | 99% | 1007.7 hPa | 0 mm | 1.34 m/s, 49° | 55 W/m² | - |
| 1778004998 | 16.11° C | 99% | 1008 hPa | 0 mm | 0.45 m/s, 234° | 58 W/m² | - |
| 1778004696 | 16.11° C | 99% | 1008 hPa | 0 mm | 1.34 m/s, 71° | 65 W/m² | - |
| 1778004392 | 16.11° C | 99% | 1008 hPa | 0 mm | 0.89 m/s, 196° | 88 W/m² | - |
| 1778004089 | 16.11° C | 99% | 1008.3 hPa | 0 mm | 0.45 m/s, 123° | 74 W/m² | - |
| 1778003785 | 16.11° C | 99% | 1008 hPa | 0 mm | 1.34 m/s, 65° | 78 W/m² | - |
| 1778003482 | 16.11° C | 99% | 1008.5 hPa | 1.78 mm | 0.45 m/s, 197° | 54 W/m² | - |
| 1778003178 | 16.11° C | 99% | 1008.5 hPa | 7.87 mm | 0.89 m/s, 80° | 53 W/m² | - |
| 1778002874 | 16.11° C | 99% | 1008.4 hPa | 8.89 mm | 0.89 m/s, 97° | 31 W/m² | - |
| 1778002571 | 16.11° C | 99% | 1008.8 hPa | 6.1 mm | 0.45 m/s, 202° | 31 W/m² | - |
| 1778002268 | 15.56° C | 99% | 1008.9 hPa | 19.81 mm | 0.45 m/s, 209° | 17 W/m² | - |
| 1778001966 | 15.56° C | 99% | 1008.7 hPa | 30.73 mm | 0.89 m/s, 198° | 19 W/m² | - |
| 1778001663 | 15.56° C | 99% | 1009.1 hPa | 49.28 mm | 0.89 m/s, 165° | 15 W/m² | - |
* Rain latest hour (hover to see other rain measurements)
** Current wind speed in m/s (hover to see current wind gust speed)